sensor_id;sensor_type;location;lat;lon;timestamp;P1;durP1;ratioP1;P2;durP2;ratioP2
73567;SDS011;61847;54.994;73.310;2022-07-29T00:01:25;11.73;;;6.22;;
73567;SDS011;61847;54.994;73.310;2022-07-29T00:03:59;9.05;;;6.35;;
73567;SDS011;61847;54.994;73.310;2022-07-29T00:06:25;13.43;;;5.70;;
73567;SDS011;61847;54.994;73.310;2022-07-29T00:08:54;8.80;;;5.40;;
73567;SDS011;61847;54.994;73.310;2022-07-29T00:11:20;9.80;;;5.55;;
73567;SDS011;61847;54.994;73.310;2022-07-29T00:13:47;6.40;;;4.53;;
73567;SDS011;61847;54.994;73.310;2022-07-29T00:16:13;6.30;;;4.50;;
73567;SDS011;61847;54.994;73.310;2022-07-29T00:18:44;7.65;;;4.30;;
73567;SDS011;61847;54.994;73.310;2022-07-29T00:21:14;8.73;;;4.18;;
73567;SDS011;61847;54.994;73.310;2022-07-29T00:23:45;6.00;;;3.60;;
73567;SDS011;61847;54.994;73.310;2022-07-29T00:26:11;12.48;;;4.20;;
73567;SDS011;61847;54.994;73.310;2022-07-29T00:28:37;5.18;;;3.30;;
73567;SDS011;61847;54.994;73.310;2022-07-29T00:31:07;6.20;;;3.50;;
73567;SDS011;61847;54.994;73.310;2022-07-29T00:33:43;5.20;;;3.47;;
73567;SDS011;61847;54.994;73.310;2022-07-29T00:36:09;5.45;;;3.15;;
73567;SDS011;61847;54.994;73.310;2022-07-29T00:38:36;6.60;;;3.10;;
73567;SDS011;61847;54.994;73.310;2022-07-29T00:41:02;3.67;;;2.72;;
73567;SDS011;61847;54.994;73.310;2022-07-29T00:43:28;4.25;;;2.85;;
73567;SDS011;61847;54.994;73.310;2022-07-29T00:45:54;4.20;;;3.10;;
73567;SDS011;61847;54.994;73.310;2022-07-29T00:48:21;4.65;;;2.50;;
73567;SDS011;61847;54.994;73.310;2022-07-29T00:50:47;3.10;;;2.38;;
73567;SDS011;61847;54.994;73.310;2022-07-29T00:53:15;3.28;;;2.50;;
73567;SDS011;61847;54.994;73.310;2022-07-29T00:55:41;4.78;;;3.63;;
73567;SDS011;61847;54.994;73.310;2022-07-29T00:58:13;3.40;;;2.58;;
73567;SDS011;61847;54.994;73.310;2022-07-29T01:00:45;5.73;;;2.80;;
73567;SDS011;61847;54.994;73.310;2022-07-29T01:03:11;3.70;;;2.50;;
73567;SDS011;61847;54.994;73.310;2022-07-29T01:05:37;2.50;;;2.10;;
73567;SDS011;61847;54.994;73.310;2022-07-29T01:08:07;2.58;;;2.20;;
73567;SDS011;61847;54.994;73.310;2022-07-29T01:10:37;2.50;;;2.00;;
73567;SDS011;61847;54.994;73.310;2022-07-29T01:13:05;2.20;;;2.00;;
73567;SDS011;61847;54.994;73.310;2022-07-29T01:15:54;3.05;;;2.08;;
73567;SDS011;61847;54.994;73.310;2022-07-29T01:18:34;3.38;;;2.25;;
73567;SDS011;61847;54.994;73.310;2022-07-29T01:23:52;3.63;;;2.03;;
73567;SDS011;61847;54.994;73.310;2022-07-29T01:32:03;5.13;;;2.70;;
73567;SDS011;61847;54.994;73.310;2022-07-29T01:40:18;3.45;;;2.22;;
73567;SDS011;61847;54.994;73.310;2022-07-29T01:42:51;6.22;;;3.17;;
73567;SDS011;61847;54.994;73.310;2022-07-29T01:45:21;3.00;;;2.30;;
73567;SDS011;61847;54.994;73.310;2022-07-29T01:51:13;4.38;;;2.72;;
73567;SDS011;61847;54.994;73.310;2022-07-29T01:53:55;5.85;;;3.20;;
73567;SDS011;61847;54.994;73.310;2022-07-29T01:56:29;7.25;;;3.97;;
73567;SDS011;61847;54.994;73.310;2022-07-29T01:58:59;6.03;;;3.55;;
73567;SDS011;61847;54.994;73.310;2022-07-29T02:01:29;6.70;;;3.90;;
73567;SDS011;61847;54.994;73.310;2022-07-29T02:04:03;5.22;;;3.80;;
73567;SDS011;61847;54.994;73.310;2022-07-29T02:06:32;10.65;;;4.30;;
73567;SDS011;61847;54.994;73.310;2022-07-29T02:09:03;7.82;;;4.18;;
73567;SDS011;61847;54.994;73.310;2022-07-29T02:11:31;7.95;;;4.15;;
73567;SDS011;61847;54.994;73.310;2022-07-29T02:14:00;6.35;;;3.90;;
73567;SDS011;61847;54.994;73.310;2022-07-29T02:16:33;7.18;;;4.25;;
73567;SDS011;61847;54.994;73.310;2022-07-29T02:19:05;7.82;;;4.30;;
73567;SDS011;61847;54.994;73.310;2022-07-29T02:21:43;6.45;;;4.25;;
73567;SDS011;61847;54.994;73.310;2022-07-29T02:24:11;10.95;;;4.28;;
73567;SDS011;61847;54.994;73.310;2022-07-29T02:26:38;11.00;;;4.50;;
73567;SDS011;61847;54.994;73.310;2022-07-29T02:29:07;7.70;;;4.38;;
73567;SDS011;61847;54.994;73.310;2022-07-29T02:31:48;4.78;;;3.58;;
73567;SDS011;61847;54.994;73.310;2022-07-29T02:36:48;9.63;;;4.28;;
73567;SDS011;61847;54.994;73.310;2022-07-29T02:39:15;8.85;;;3.70;;
73567;SDS011;61847;54.994;73.310;2022-07-29T02:41:50;7.25;;;4.40;;
73567;SDS011;61847;54.994;73.310;2022-07-29T02:44:26;6.40;;;3.45;;
73567;SDS011;61847;54.994;73.310;2022-07-29T02:47:02;6.00;;;3.60;;
73567;SDS011;61847;54.994;73.310;2022-07-29T02:49:41;6.75;;;3.80;;
73567;SDS011;61847;54.994;73.310;2022-07-29T02:52:34;8.20;;;4.20;;
73567;SDS011;61847;54.994;73.310;2022-07-29T02:55:34;6.78;;;4.20;;
73567;SDS011;61847;54.994;73.310;2022-07-29T02:58:13;10.00;;;4.50;;
73567;SDS011;61847;54.994;73.310;2022-07-29T03:00:49;8.95;;;3.83;;
73567;SDS011;61847;54.994;73.310;2022-07-29T03:03:24;7.53;;;3.90;;
73567;SDS011;61847;54.994;73.310;2022-07-29T03:05:56;6.68;;;3.20;;
73567;SDS011;61847;54.994;73.310;2022-07-29T03:08:25;5.38;;;3.20;;
73567;SDS011;61847;54.994;73.310;2022-07-29T03:10:52;6.47;;;3.55;;
73567;SDS011;61847;54.994;73.310;2022-07-29T03:13:19;12.38;;;3.55;;
73567;SDS011;61847;54.994;73.310;2022-07-29T03:15:45;5.63;;;3.33;;
73567;SDS011;61847;54.994;73.310;2022-07-29T03:18:26;4.35;;;2.72;;
73567;SDS011;61847;54.994;73.310;2022-07-29T03:20:52;10.63;;;2.90;;
73567;SDS011;61847;54.994;73.310;2022-07-29T03:23:19;4.97;;;2.42;;
73567;SDS011;61847;54.994;73.310;2022-07-29T03:25:53;2.83;;;2.10;;
73567;SDS011;61847;54.994;73.310;2022-07-29T03:28:29;6.57;;;2.60;;
73567;SDS011;61847;54.994;73.310;2022-07-29T03:30:55;4.85;;;2.60;;
73567;SDS011;61847;54.994;73.310;2022-07-29T03:33:21;3.00;;;2.20;;
73567;SDS011;61847;54.994;73.310;2022-07-29T03:35:50;3.25;;;2.10;;
73567;SDS011;61847;54.994;73.310;2022-07-29T03:38:16;3.67;;;2.17;;
73567;SDS011;61847;54.994;73.310;2022-07-29T03:40:54;5.65;;;2.10;;
73567;SDS011;61847;54.994;73.310;2022-07-29T03:43:24;4.72;;;2.13;;
73567;SDS011;61847;54.994;73.310;2022-07-29T03:45:55;8.53;;;1.90;;
73567;SDS011;61847;54.994;73.310;2022-07-29T03:48:23;2.58;;;1.90;;
73567;SDS011;61847;54.994;73.310;2022-07-29T03:50:52;3.08;;;2.20;;
73567;SDS011;61847;54.994;73.310;2022-07-29T03:53:18;3.50;;;1.90;;
73567;SDS011;61847;54.994;73.310;2022-07-29T03:55:46;3.63;;;2.05;;
73567;SDS011;61847;54.994;73.310;2022-07-29T03:58:17;2.55;;;1.90;;
73567;SDS011;61847;54.994;73.310;2022-07-29T04:00:45;3.88;;;1.83;;
73567;SDS011;61847;54.994;73.310;2022-07-29T04:03:12;4.45;;;1.50;;
73567;SDS011;61847;54.994;73.310;2022-07-29T04:05:43;3.85;;;1.92;;
73567;SDS011;61847;54.994;73.310;2022-07-29T04:08:09;1.98;;;1.65;;
73567;SDS011;61847;54.994;73.310;2022-07-29T04:10:37;2.78;;;1.70;;
73567;SDS011;61847;54.994;73.310;2022-07-29T04:13:14;5.25;;;1.98;;
73567;SDS011;61847;54.994;73.310;2022-07-29T04:15:41;3.58;;;2.38;;
73567;SDS011;61847;54.994;73.310;2022-07-29T04:18:07;9.93;;;2.80;;
73567;SDS011;61847;54.994;73.310;2022-07-29T04:20:33;7.05;;;5.00;;
73567;SDS011;61847;54.994;73.310;2022-07-29T04:22:59;20.33;;;4.32;;
73567;SDS011;61847;54.994;73.310;2022-07-29T04:25:25;18.85;;;5.32;;
73567;SDS011;61847;54.994;73.310;2022-07-29T04:27:52;16.35;;;8.27;;
73567;SDS011;61847;54.994;73.310;2022-07-29T04:30:27;11.98;;;6.57;;
73567;SDS011;61847;54.994;73.310;2022-07-29T04:32:55;12.82;;;6.03;;
73567;SDS011;61847;54.994;73.310;2022-07-29T04:35:21;12.18;;;6.68;;
73567;SDS011;61847;54.994;73.310;2022-07-29T04:37:47;15.60;;;6.90;;
73567;SDS011;61847;54.994;73.310;2022-07-29T04:40:14;13.43;;;7.38;;
73567;SDS011;61847;54.994;73.310;2022-07-29T04:42:40;15.73;;;7.40;;
73567;SDS011;61847;54.994;73.310;2022-07-29T04:45:07;13.05;;;6.90;;
73567;SDS011;61847;54.994;73.310;2022-07-29T04:47:33;13.95;;;7.25;;
73567;SDS011;61847;54.994;73.310;2022-07-29T04:50:00;13.55;;;6.95;;
73567;SDS011;61847;54.994;73.310;2022-07-29T04:52:29;11.23;;;7.13;;
73567;SDS011;61847;54.994;73.310;2022-07-29T04:54:56;11.48;;;7.50;;
73567;SDS011;61847;54.994;73.310;2022-07-29T04:57:35;13.77;;;7.47;;
73567;SDS011;61847;54.994;73.310;2022-07-29T05:00:11;13.10;;;7.85;;
73567;SDS011;61847;54.994;73.310;2022-07-29T05:02:38;10.15;;;7.05;;
73567;SDS011;61847;54.994;73.310;2022-07-29T05:05:04;11.40;;;7.60;;
73567;SDS011;61847;54.994;73.310;2022-07-29T05:07:33;12.80;;;7.88;;
73567;SDS011;61847;54.994;73.310;2022-07-29T05:10:00;12.80;;;6.97;;
73567;SDS011;61847;54.994;73.310;2022-07-29T05:12:26;9.48;;;6.40;;
73567;SDS011;61847;54.994;73.310;2022-07-29T05:14:53;11.15;;;7.20;;
73567;SDS011;61847;54.994;73.310;2022-07-29T05:17:19;12.95;;;7.25;;
73567;SDS011;61847;54.994;73.310;2022-07-29T05:19:45;12.65;;;6.97;;
73567;SDS011;61847;54.994;73.310;2022-07-29T05:22:12;14.45;;;7.60;;
73567;SDS011;61847;54.994;73.310;2022-07-29T05:24:38;16.98;;;6.93;;
73567;SDS011;61847;54.994;73.310;2022-07-29T05:27:04;16.45;;;5.95;;
73567;SDS011;61847;54.994;73.310;2022-07-29T05:29:30;16.35;;;6.32;;
73567;SDS011;61847;54.994;73.310;2022-07-29T05:31:57;8.55;;;5.68;;
73567;SDS011;61847;54.994;73.310;2022-07-29T05:34:23;12.52;;;6.30;;
73567;SDS011;61847;54.994;73.310;2022-07-29T05:36:50;11.30;;;6.13;;
73567;SDS011;61847;54.994;73.310;2022-07-29T05:39:19;11.05;;;6.15;;
73567;SDS011;61847;54.994;73.310;2022-07-29T05:41:46;11.95;;;6.30;;
73567;SDS011;61847;54.994;73.310;2022-07-29T05:44:23;10.88;;;6.13;;
73567;SDS011;61847;54.994;73.310;2022-07-29T05:46:49;18.42;;;5.40;;
73567;SDS011;61847;54.994;73.310;2022-07-29T05:49:15;15.77;;;6.78;;
73567;SDS011;61847;54.994;73.310;2022-07-29T05:51:42;16.85;;;5.05;;
73567;SDS011;61847;54.994;73.310;2022-07-29T05:54:11;12.38;;;6.32;;
73567;SDS011;61847;54.994;73.310;2022-07-29T05:56:38;9.98;;;5.13;;
73567;SDS011;61847;54.994;73.310;2022-07-29T05:59:04;6.22;;;5.25;;
73567;SDS011;61847;54.994;73.310;2022-07-29T06:01:30;16.13;;;4.95;;
73567;SDS011;61847;54.994;73.310;2022-07-29T06:03:57;11.20;;;5.10;;
73567;SDS011;61847;54.994;73.310;2022-07-29T06:06:23;9.13;;;4.88;;
73567;SDS011;61847;54.994;73.310;2022-07-29T06:08:49;12.18;;;4.97;;
73567;SDS011;61847;54.994;73.310;2022-07-29T06:11:21;8.30;;;4.85;;
73567;SDS011;61847;54.994;73.310;2022-07-29T06:13:52;6.28;;;4.72;;
73567;SDS011;61847;54.994;73.310;2022-07-29T06:16:18;9.95;;;5.05;;
73567;SDS011;61847;54.994;73.310;2022-07-29T06:18:45;18.70;;;4.50;;
73567;SDS011;61847;54.994;73.310;2022-07-29T06:21:11;12.93;;;5.10;;
73567;SDS011;61847;54.994;73.310;2022-07-29T06:23:38;7.60;;;4.90;;
73567;SDS011;61847;54.994;73.310;2022-07-29T06:26:05;10.98;;;5.40;;
73567;SDS011;61847;54.994;73.310;2022-07-29T06:28:32;10.10;;;5.22;;
73567;SDS011;61847;54.994;73.310;2022-07-29T06:30:59;7.53;;;4.90;;
73567;SDS011;61847;54.994;73.310;2022-07-29T06:33:25;9.18;;;5.05;;
73567;SDS011;61847;54.994;73.310;2022-07-29T06:35:52;12.65;;;5.15;;
73567;SDS011;61847;54.994;73.310;2022-07-29T06:38:19;9.25;;;4.50;;
73567;SDS011;61847;54.994;73.310;2022-07-29T06:40:45;13.38;;;5.28;;
73567;SDS011;61847;54.994;73.310;2022-07-29T06:43:36;13.40;;;5.25;;
73567;SDS011;61847;54.994;73.310;2022-07-29T06:46:06;9.80;;;5.07;;
73567;SDS011;61847;54.994;73.310;2022-07-29T06:48:39;12.80;;;5.10;;
73567;SDS011;61847;54.994;73.310;2022-07-29T06:51:13;10.30;;;4.57;;
73567;SDS011;61847;54.994;73.310;2022-07-29T06:53:39;8.55;;;5.22;;
73567;SDS011;61847;54.994;73.310;2022-07-29T06:56:06;13.02;;;4.80;;
73567;SDS011;61847;54.994;73.310;2022-07-29T06:58:34;7.38;;;4.97;;
73567;SDS011;61847;54.994;73.310;2022-07-29T07:01:02;11.23;;;5.10;;
73567;SDS011;61847;54.994;73.310;2022-07-29T07:03:29;13.60;;;4.38;;
73567;SDS011;61847;54.994;73.310;2022-07-29T07:06:02;13.85;;;4.80;;
73567;SDS011;61847;54.994;73.310;2022-07-29T07:08:28;17.10;;;4.95;;
73567;SDS011;61847;54.994;73.310;2022-07-29T07:10:55;8.48;;;4.63;;
73567;SDS011;61847;54.994;73.310;2022-07-29T07:13:22;13.40;;;5.05;;
73567;SDS011;61847;54.994;73.310;2022-07-29T07:15:49;10.20;;;4.72;;
73567;SDS011;61847;54.994;73.310;2022-07-29T07:18:16;9.45;;;4.60;;
73567;SDS011;61847;54.994;73.310;2022-07-29T07:20:44;8.25;;;4.90;;
73567;SDS011;61847;54.994;73.310;2022-07-29T07:23:12;18.58;;;4.90;;
73567;SDS011;61847;54.994;73.310;2022-07-29T07:25:38;12.90;;;4.65;;
73567;SDS011;61847;54.994;73.310;2022-07-29T07:28:04;13.70;;;4.70;;
73567;SDS011;61847;54.994;73.310;2022-07-29T07:30:30;13.82;;;4.30;;
73567;SDS011;61847;54.994;73.310;2022-07-29T07:32:57;11.15;;;4.68;;
73567;SDS011;61847;54.994;73.310;2022-07-29T07:35:23;17.75;;;4.38;;
73567;SDS011;61847;54.994;73.310;2022-07-29T07:37:52;5.57;;;4.18;;
73567;SDS011;61847;54.994;73.310;2022-07-29T07:40:21;14.63;;;4.45;;
73567;SDS011;61847;54.994;73.310;2022-07-29T07:42:55;9.52;;;4.03;;
73567;SDS011;61847;54.994;73.310;2022-07-29T07:45:21;10.05;;;4.50;;
73567;SDS011;61847;54.994;73.310;2022-07-29T07:47:50;7.30;;;4.07;;
73567;SDS011;61847;54.994;73.310;2022-07-29T07:50:25;14.82;;;4.93;;
73567;SDS011;61847;54.994;73.310;2022-07-29T07:52:52;9.90;;;5.63;;
73567;SDS011;61847;54.994;73.310;2022-07-29T07:55:23;12.80;;;4.47;;
73567;SDS011;61847;54.994;73.310;2022-07-29T07:57:50;10.27;;;4.80;;
73567;SDS011;61847;54.994;73.310;2022-07-29T08:00:18;10.57;;;3.97;;
73567;SDS011;61847;54.994;73.310;2022-07-29T08:02:45;12.15;;;4.80;;
73567;SDS011;61847;54.994;73.310;2022-07-29T08:05:11;13.68;;;4.47;;
73567;SDS011;61847;54.994;73.310;2022-07-29T08:07:45;14.98;;;4.13;;
73567;SDS011;61847;54.994;73.310;2022-07-29T08:10:15;14.63;;;4.72;;
73567;SDS011;61847;54.994;73.310;2022-07-29T08:13:07;19.98;;;4.47;;
73567;SDS011;61847;54.994;73.310;2022-07-29T08:15:34;14.27;;;5.78;;
73567;SDS011;61847;54.994;73.310;2022-07-29T08:18:01;22.08;;;4.50;;
73567;SDS011;61847;54.994;73.310;2022-07-29T08:20:28;16.55;;;3.50;;
73567;SDS011;61847;54.994;73.310;2022-07-29T08:22:56;7.35;;;4.00;;
73567;SDS011;61847;54.994;73.310;2022-07-29T08:25:23;7.28;;;4.50;;
73567;SDS011;61847;54.994;73.310;2022-07-29T08:27:56;8.75;;;5.03;;
73567;SDS011;61847;54.994;73.310;2022-07-29T08:30:22;6.93;;;4.30;;
73567;SDS011;61847;54.994;73.310;2022-07-29T08:32:48;8.02;;;3.90;;
73567;SDS011;61847;54.994;73.310;2022-07-29T08:35:22;6.45;;;3.70;;
73567;SDS011;61847;54.994;73.310;2022-07-29T08:37:49;6.40;;;3.28;;
73567;SDS011;61847;54.994;73.310;2022-07-29T08:40:16;8.93;;;4.07;;
73567;SDS011;61847;54.994;73.310;2022-07-29T08:42:43;10.45;;;4.07;;
73567;SDS011;61847;54.994;73.310;2022-07-29T08:45:09;14.98;;;3.70;;
73567;SDS011;61847;54.994;73.310;2022-07-29T08:47:37;12.35;;;4.10;;
73567;SDS011;61847;54.994;73.310;2022-07-29T08:50:08;14.15;;;4.07;;
73567;SDS011;61847;54.994;73.310;2022-07-29T08:52:39;10.85;;;3.90;;
73567;SDS011;61847;54.994;73.310;2022-07-29T08:55:07;9.93;;;3.75;;
73567;SDS011;61847;54.994;73.310;2022-07-29T08:57:35;11.27;;;4.05;;
73567;SDS011;61847;54.994;73.310;2022-07-29T09:00:04;7.90;;;4.10;;
73567;SDS011;61847;54.994;73.310;2022-07-29T09:02:39;9.60;;;3.92;;
73567;SDS011;61847;54.994;73.310;2022-07-29T09:05:07;9.57;;;4.05;;
73567;SDS011;61847;54.994;73.310;2022-07-29T09:07:34;17.38;;;3.70;;
73567;SDS011;61847;54.994;73.310;2022-07-29T09:10:01;5.57;;;4.10;;
73567;SDS011;61847;54.994;73.310;2022-07-29T09:12:30;9.07;;;4.40;;
73567;SDS011;61847;54.994;73.310;2022-07-29T09:14:56;8.65;;;4.22;;
73567;SDS011;61847;54.994;73.310;2022-07-29T09:20:17;11.98;;;4.88;;
73567;SDS011;61847;54.994;73.310;2022-07-29T09:22:45;8.13;;;4.22;;
73567;SDS011;61847;54.994;73.310;2022-07-29T09:25:15;11.82;;;5.20;;
73567;SDS011;61847;54.994;73.310;2022-07-29T09:30:34;11.63;;;4.03;;
73567;SDS011;61847;54.994;73.310;2022-07-29T09:33:11;20.00;;;4.45;;
73567;SDS011;61847;54.994;73.310;2022-07-29T09:35:58;7.70;;;4.30;;
73567;SDS011;61847;54.994;73.310;2022-07-29T09:38:29;8.95;;;4.35;;
73567;SDS011;61847;54.994;73.310;2022-07-29T09:41:01;27.67;;;4.80;;
73567;SDS011;61847;54.994;73.310;2022-07-29T09:43:29;11.82;;;4.30;;
73567;SDS011;61847;54.994;73.310;2022-07-29T09:46:05;14.32;;;4.50;;
73567;SDS011;61847;54.994;73.310;2022-07-29T09:48:36;7.85;;;4.03;;
73567;SDS011;61847;54.994;73.310;2022-07-29T09:51:02;11.43;;;4.32;;
73567;SDS011;61847;54.994;73.310;2022-07-29T09:53:34;9.30;;;3.90;;
73567;SDS011;61847;54.994;73.310;2022-07-29T09:56:02;10.48;;;4.43;;
73567;SDS011;61847;54.994;73.310;2022-07-29T09:58:31;11.40;;;4.00;;
73567;SDS011;61847;54.994;73.310;2022-07-29T10:01:05;5.93;;;4.20;;
73567;SDS011;61847;54.994;73.310;2022-07-29T10:03:31;5.65;;;3.60;;
73567;SDS011;61847;54.994;73.310;2022-07-29T10:06:05;7.75;;;4.20;;
73567;SDS011;61847;54.994;73.310;2022-07-29T10:08:37;12.20;;;4.15;;
73567;SDS011;61847;54.994;73.310;2022-07-29T10:11:13;11.75;;;4.00;;
73567;SDS011;61847;54.994;73.310;2022-07-29T10:13:43;9.80;;;4.07;;
73567;SDS011;61847;54.994;73.310;2022-07-29T10:18:46;5.43;;;4.20;;
73567;SDS011;61847;54.994;73.310;2022-07-29T10:21:13;13.15;;;4.75;;
73567;SDS011;61847;54.994;73.310;2022-07-29T10:23:40;17.50;;;4.43;;
73567;SDS011;61847;54.994;73.310;2022-07-29T10:26:25;5.60;;;3.75;;
73567;SDS011;61847;54.994;73.310;2022-07-29T10:28:55;11.65;;;4.32;;
73567;SDS011;61847;54.994;73.310;2022-07-29T10:31:24;15.98;;;3.92;;
73567;SDS011;61847;54.994;73.310;2022-07-29T10:37:12;8.57;;;3.78;;
73567;SDS011;61847;54.994;73.310;2022-07-29T10:43:21;14.93;;;4.38;;
73567;SDS011;61847;54.994;73.310;2022-07-29T10:45:54;13.35;;;4.20;;
73567;SDS011;61847;54.994;73.310;2022-07-29T10:48:22;11.88;;;4.28;;
73567;SDS011;61847;54.994;73.310;2022-07-29T10:51:02;10.60;;;4.30;;
73567;SDS011;61847;54.994;73.310;2022-07-29T10:56:30;9.32;;;4.70;;
73567;SDS011;61847;54.994;73.310;2022-07-29T11:01:50;22.27;;;4.40;;
73567;SDS011;61847;54.994;73.310;2022-07-29T11:07:19;10.25;;;3.75;;
73567;SDS011;61847;54.994;73.310;2022-07-29T11:12:46;9.68;;;4.18;;
73567;SDS011;61847;54.994;73.310;2022-07-29T11:15:14;13.57;;;4.63;;
73567;SDS011;61847;54.994;73.310;2022-07-29T11:20:34;12.93;;;3.97;;
73567;SDS011;61847;54.994;73.310;2022-07-29T11:23:01;15.77;;;4.20;;
73567;SDS011;61847;54.994;73.310;2022-07-29T11:25:44;9.18;;;4.38;;
73567;SDS011;61847;54.994;73.310;2022-07-29T11:28:17;12.25;;;4.55;;
73567;SDS011;61847;54.994;73.310;2022-07-29T11:30:47;9.10;;;4.45;;
73567;SDS011;61847;54.994;73.310;2022-07-29T11:33:27;12.38;;;4.32;;
73567;SDS011;61847;54.994;73.310;2022-07-29T11:36:09;8.65;;;4.20;;
73567;SDS011;61847;54.994;73.310;2022-07-29T11:38:39;10.38;;;4.82;;
73567;SDS011;61847;54.994;73.310;2022-07-29T11:43:52;19.48;;;4.22;;
73567;SDS011;61847;54.994;73.310;2022-07-29T11:49:09;9.23;;;4.05;;
73567;SDS011;61847;54.994;73.310;2022-07-29T11:51:36;8.75;;;3.70;;
73567;SDS011;61847;54.994;73.310;2022-07-29T11:54:05;15.57;;;4.18;;
73567;SDS011;61847;54.994;73.310;2022-07-29T11:56:34;3.95;;;3.15;;
73567;SDS011;61847;54.994;73.310;2022-07-29T11:59:09;9.65;;;3.58;;
73567;SDS011;61847;54.994;73.310;2022-07-29T12:01:51;14.75;;;3.80;;
73567;SDS011;61847;54.994;73.310;2022-07-29T12:04:21;6.65;;;3.10;;
73567;SDS011;61847;54.994;73.310;2022-07-29T12:06:53;10.85;;;4.20;;
73567;SDS011;61847;54.994;73.310;2022-07-29T12:09:26;13.00;;;3.95;;
73567;SDS011;61847;54.994;73.310;2022-07-29T12:11:58;13.30;;;3.30;;
73567;SDS011;61847;54.994;73.310;2022-07-29T12:17:01;8.57;;;3.83;;
73567;SDS011;61847;54.994;73.310;2022-07-29T12:19:28;8.90;;;3.47;;
73567;SDS011;61847;54.994;73.310;2022-07-29T12:22:05;7.22;;;3.38;;
73567;SDS011;61847;54.994;73.310;2022-07-29T12:24:42;12.00;;;5.22;;
73567;SDS011;61847;54.994;73.310;2022-07-29T12:27:12;6.45;;;3.60;;
73567;SDS011;61847;54.994;73.310;2022-07-29T12:29:43;7.10;;;3.47;;
73567;SDS011;61847;54.994;73.310;2022-07-29T12:32:09;12.45;;;3.55;;
73567;SDS011;61847;54.994;73.310;2022-07-29T12:34:36;7.10;;;3.20;;
73567;SDS011;61847;54.994;73.310;2022-07-29T12:37:02;12.60;;;3.15;;
73567;SDS011;61847;54.994;73.310;2022-07-29T12:39:29;12.23;;;3.22;;
73567;SDS011;61847;54.994;73.310;2022-07-29T12:41:55;12.23;;;3.05;;
73567;SDS011;61847;54.994;73.310;2022-07-29T12:44:22;25.83;;;3.70;;
73567;SDS011;61847;54.994;73.310;2022-07-29T12:47:01;6.97;;;3.30;;
73567;SDS011;61847;54.994;73.310;2022-07-29T12:49:29;6.27;;;3.23;;
73567;SDS011;61847;54.994;73.310;2022-07-29T12:51:56;9.32;;;3.03;;
73567;SDS011;61847;54.994;73.310;2022-07-29T12:54:22;7.00;;;3.28;;
73567;SDS011;61847;54.994;73.310;2022-07-29T12:56:57;5.07;;;3.03;;
73567;SDS011;61847;54.994;73.310;2022-07-29T12:59:24;11.93;;;3.60;;
73567;SDS011;61847;54.994;73.310;2022-07-29T13:01:51;5.47;;;3.20;;
73567;SDS011;61847;54.994;73.310;2022-07-29T13:04:28;4.90;;;2.80;;
73567;SDS011;61847;54.994;73.310;2022-07-29T13:07:03;14.77;;;3.72;;
73567;SDS011;61847;54.994;73.310;2022-07-29T13:12:14;7.55;;;2.63;;
73567;SDS011;61847;54.994;73.310;2022-07-29T13:14:41;9.30;;;2.88;;
73567;SDS011;61847;54.994;73.310;2022-07-29T13:19:42;11.45;;;3.33;;
73567;SDS011;61847;54.994;73.310;2022-07-29T13:22:11;14.32;;;2.85;;
73567;SDS011;61847;54.994;73.310;2022-07-29T13:24:52;8.45;;;3.10;;
73567;SDS011;61847;54.994;73.310;2022-07-29T13:27:21;23.80;;;3.40;;
73567;SDS011;61847;54.994;73.310;2022-07-29T13:29:54;13.18;;;2.90;;
73567;SDS011;61847;54.994;73.310;2022-07-29T13:32:26;8.55;;;2.90;;
73567;SDS011;61847;54.994;73.310;2022-07-29T13:34:55;7.97;;;2.58;;
73567;SDS011;61847;54.994;73.310;2022-07-29T13:37:22;10.73;;;2.50;;
73567;SDS011;61847;54.994;73.310;2022-07-29T13:39:49;6.50;;;2.65;;
73567;SDS011;61847;54.994;73.310;2022-07-29T13:42:26;8.77;;;2.30;;
73567;SDS011;61847;54.994;73.310;2022-07-29T13:44:52;7.63;;;2.72;;
73567;SDS011;61847;54.994;73.310;2022-07-29T13:47:29;8.10;;;2.20;;
73567;SDS011;61847;54.994;73.310;2022-07-29T13:49:55;5.72;;;2.08;;
73567;SDS011;61847;54.994;73.310;2022-07-29T13:52:23;8.23;;;2.20;;
73567;SDS011;61847;54.994;73.310;2022-07-29T13:54:49;9.13;;;2.70;;
73567;SDS011;61847;54.994;73.310;2022-07-29T13:57:20;3.97;;;2.40;;
73567;SDS011;61847;54.994;73.310;2022-07-29T13:59:46;8.50;;;3.95;;
73567;SDS011;61847;54.994;73.310;2022-07-29T14:02:13;12.23;;;2.45;;
73567;SDS011;61847;54.994;73.310;2022-07-29T14:04:39;11.07;;;2.83;;
73567;SDS011;61847;54.994;73.310;2022-07-29T14:07:08;4.63;;;3.25;;
73567;SDS011;61847;54.994;73.310;2022-07-29T14:09:40;10.90;;;2.78;;
73567;SDS011;61847;54.994;73.310;2022-07-29T14:12:07;12.85;;;5.97;;
73567;SDS011;61847;54.994;73.310;2022-07-29T14:14:34;7.60;;;2.53;;
73567;SDS011;61847;54.994;73.310;2022-07-29T14:17:06;6.57;;;2.40;;
73567;SDS011;61847;54.994;73.310;2022-07-29T14:19:38;6.15;;;2.50;;
73567;SDS011;61847;54.994;73.310;2022-07-29T14:22:04;14.05;;;2.50;;
73567;SDS011;61847;54.994;73.310;2022-07-29T14:24:32;13.07;;;2.58;;
73567;SDS011;61847;54.994;73.310;2022-07-29T14:27:08;3.88;;;2.13;;
73567;SDS011;61847;54.994;73.310;2022-07-29T14:29:35;7.43;;;2.40;;
73567;SDS011;61847;54.994;73.310;2022-07-29T14:32:02;7.43;;;2.60;;
73567;SDS011;61847;54.994;73.310;2022-07-29T14:34:32;9.25;;;2.53;;
73567;SDS011;61847;54.994;73.310;2022-07-29T14:36:59;5.32;;;2.20;;
73567;SDS011;61847;54.994;73.310;2022-07-29T14:39:25;8.73;;;2.53;;
73567;SDS011;61847;54.994;73.310;2022-07-29T14:41:55;4.70;;;2.20;;
73567;SDS011;61847;54.994;73.310;2022-07-29T14:44:21;6.55;;;2.35;;
73567;SDS011;61847;54.994;73.310;2022-07-29T14:46:47;7.40;;;2.17;;
73567;SDS011;61847;54.994;73.310;2022-07-29T14:49:13;4.82;;;2.00;;
73567;SDS011;61847;54.994;73.310;2022-07-29T14:51:45;16.90;;;2.47;;
73567;SDS011;61847;54.994;73.310;2022-07-29T14:54:11;5.22;;;2.30;;
73567;SDS011;61847;54.994;73.310;2022-07-29T14:56:38;6.93;;;1.77;;
73567;SDS011;61847;54.994;73.310;2022-07-29T14:59:07;5.40;;;2.00;;
73567;SDS011;61847;54.994;73.310;2022-07-29T15:01:33;11.68;;;2.30;;
73567;SDS011;61847;54.994;73.310;2022-07-29T15:04:02;6.13;;;2.78;;
73567;SDS011;61847;54.994;73.310;2022-07-29T15:06:28;7.00;;;2.55;;
73567;SDS011;61847;54.994;73.310;2022-07-29T15:08:54;5.03;;;2.30;;
73567;SDS011;61847;54.994;73.310;2022-07-29T15:11:21;8.60;;;2.88;;
73567;SDS011;61847;54.994;73.310;2022-07-29T15:13:47;13.20;;;3.78;;
73567;SDS011;61847;54.994;73.310;2022-07-29T15:16:13;7.38;;;2.63;;
73567;SDS011;61847;54.994;73.310;2022-07-29T15:18:40;5.03;;;2.15;;
73567;SDS011;61847;54.994;73.310;2022-07-29T15:21:17;7.93;;;2.08;;
73567;SDS011;61847;54.994;73.310;2022-07-29T15:23:43;6.20;;;1.98;;
73567;SDS011;61847;54.994;73.310;2022-07-29T15:26:12;5.18;;;2.28;;
73567;SDS011;61847;54.994;73.310;2022-07-29T15:28:38;5.90;;;2.05;;
73567;SDS011;61847;54.994;73.310;2022-07-29T15:31:10;3.33;;;2.20;;
73567;SDS011;61847;54.994;73.310;2022-07-29T15:33:46;7.85;;;1.90;;
73567;SDS011;61847;54.994;73.310;2022-07-29T15:36:18;6.55;;;2.40;;
73567;SDS011;61847;54.994;73.310;2022-07-29T15:38:44;10.45;;;5.45;;
73567;SDS011;61847;54.994;73.310;2022-07-29T15:41:14;8.90;;;1.95;;
73567;SDS011;61847;54.994;73.310;2022-07-29T15:43:43;5.32;;;1.80;;
73567;SDS011;61847;54.994;73.310;2022-07-29T15:46:18;6.22;;;1.90;;